Time;durP1;ratioP1;P1;durP2;ratioP2;P2;SDS_P1;SDS_P2;PMS_P1;PMS_P2;Temp;Humidity;BMP_temperature;BMP_pressure;BME280_temperature;BME280_humidity;BME280_pressure;Samples;Min_cycle;Max_cycle;Signal;HPM_P1;HPM_P2
2022/05/29 00:00:28;;;;;;;3.78;1.60;;;13.10;52.00;;;15.48;45.61;100332.69;5008923;28;20049;-77
2022/05/29 00:02:55;;;;;;;4.40;1.80;;;15.50;53.40;;;15.47;45.80;100341.56;4993035;28;20131;-77
2022/05/29 00:05:22;;;;;;;7.65;1.85;;;;;;;15.39;46.63;100331.31;4992810;28;20045;-78
2022/05/29 00:07:50;;;;;;;4.45;1.90;;;;;;;15.37;46.62;100331.34;5010549;28;20069;-81
2022/05/29 00:10:18;;;;;;;6.65;2.22;;;15.40;53.40;;;15.20;46.84;100328.59;5011895;28;20104;-79
2022/05/29 00:12:46;;;;;;;4.03;1.92;;;;;;;15.24;46.59;100328.41;5014404;28;20058;-78
2022/05/29 00:15:13;;;;;;;6.20;1.80;;;;;;;15.19;47.02;100324.22;5032477;28;20041;-78
2022/05/29 00:17:42;;;;;;;3.42;1.85;;;;;;;15.20;46.71;100321.50;5014515;28;20481;-78
2022/05/29 00:20:10;;;;;;;5.22;1.65;;;15.60;53.60;;;15.13;47.29;100312.09;5013852;28;20045;-79
2022/05/29 00:22:38;;;;;;;7.55;2.20;;;15.20;53.70;;;15.14;47.30;100309.41;4999034;28;20069;-79
2022/05/29 00:25:10;;;;;;;5.47;1.90;;;15.20;53.70;;;15.08;47.58;100314.94;5032822;28;20047;-79
2022/05/29 00:27:37;;;;;;;7.78;1.77;;;;;;;15.06;47.38;100318.59;5031758;28;20111;-79
2022/05/29 00:30:09;;;;;;;3.95;2.03;;;15.20;53.40;;;15.03;47.62;100312.50;5032094;28;20073;-78
2022/05/29 00:32:36;;;;;;;5.18;1.77;;;;;;;14.96;48.03;100315.47;5046962;28;20836;-78
2022/05/29 00:35:04;;;;;;;3.78;1.63;;;;;;;14.98;48.07;100308.31;5029391;28;20083;-79
2022/05/29 00:37:36;;;;;;;4.53;1.60;;;15.00;56.10;;;15.02;48.26;100308.13;5029770;28;20057;-78
2022/05/29 00:40:36;;;;;;;5.43;1.50;;;15.10;54.40;;;14.97;48.86;100309.25;5044621;28;20167;-79
2022/05/29 00:43:03;;;;;;;3.15;1.60;;;;;;;14.91;48.90;100302.47;5030296;28;20120;-78
2022/05/29 00:45:48;;;;;;;4.78;1.60;;;14.90;54.30;;;14.88;49.07;100310.50;5030618;28;20163;-78
2022/05/29 00:48:18;;;;;;;3.90;2.13;;;15.10;54.30;;;14.86;49.08;100301.78;5028879;28;20053;-78
2022/05/29 00:50:46;;;;;;;8.83;2.07;;;14.90;54.40;;;14.87;49.70;100303.50;5043397;28;20038;-78
2022/05/29 00:53:15;;;;;;;3.45;2.00;;;14.80;59.10;;;14.89;49.68;100296.34;5027522;28;20310;-78
2022/05/29 00:55:50;;;;;;;6.03;2.05;;;14.80;54.70;;;14.94;50.48;100293.50;5027960;28;20037;-78
2022/05/29 00:58:20;;;;;;;6.00;2.63;;;15.50;56.20;;;14.95;50.91;100287.25;5027784;28;20042;-78
2022/05/29 01:00:49;;;;;;;4.90;1.80;;;;;;;14.93;51.34;100289.13;5041992;28;20055;-78
2022/05/29 01:03:17;;;;;;;6.25;1.90;;;;;;;14.89;51.71;100281.31;5028526;28;20049;-77
2022/05/29 01:05:44;;;;;;;6.88;2.13;;;14.90;55.30;;;14.83;51.47;100275.44;5028520;28;20073;-78
2022/05/29 01:08:27;;;;;;;6.15;1.75;;;14.70;62.20;;;14.88;51.67;100276.06;5027304;28;20053;-78
2022/05/29 01:11:23;;;;;;;3.30;1.73;;;16.40;56.50;;;14.89;53.30;100277.78;5025606;28;20056;-78
2022/05/29 01:14:32;;;;;;;3.80;1.90;;;14.90;56.20;;;14.85;56.45;100279.75;5027207;28;20045;-78
2022/05/29 01:17:40;;;;;;;5.32;1.88;;;14.80;56.80;;;14.79;60.06;100276.50;5019170;28;20049;-78
2022/05/29 01:20:25;;;;;;;9.63;2.65;;;14.90;57.80;;;14.69;62.21;100273.34;5028116;28;20057;-79
2022/05/29 01:23:38;;;;;;;6.03;2.72;;;15.00;58.30;;;14.72;61.89;100271.44;5030702;28;20056;-78
2022/05/29 01:26:46;;;;;;;6.72;2.58;;;14.70;58.20;;;14.68;62.60;100267.19;5031081;28;20049;-79
2022/05/29 01:29:19;;;;;;;4.50;1.88;;;14.70;58.30;;;14.60;61.98;100259.56;5029392;28;20596;-79
2022/05/29 01:31:55;;;;;;;3.97;1.80;;;14.70;58.20;;;14.70;62.45;100267.13;5014204;28;20050;-79
2022/05/29 01:34:47;;;;;;;5.50;2.10;;;14.60;58.50;;;14.65;62.48;100256.72;5045565;28;20084;-79
2022/05/29 01:37:33;;;;;;;5.35;1.83;;;14.60;58.60;;;14.60;63.00;100256.06;5028560;28;20045;-79
2022/05/29 01:40:22;;;;;;;6.32;2.55;;;14.60;58.70;;;14.55;62.57;100243.03;5028047;28;20056;-79
2022/05/29 01:43:35;;;;;;;8.33;3.30;;;14.60;58.80;;;14.58;62.65;100256.13;5030516;28;20065;-78
2022/05/29 01:46:22;;;;;;;9.23;2.45;;;15.10;59.20;;;14.57;61.05;100257.06;5046362;28;20383;-78
2022/05/29 01:48:57;;;;;;;6.05;2.20;;;14.50;58.50;;;14.44;61.64;100254.06;5047283;28;20148;-77
2022/05/29 01:52:06;;;;;;;6.10;2.30;;;16.10;59.50;;;14.34;61.04;100255.38;5048521;28;20060;-77
2022/05/29 01:54:45;;;;;;;9.20;2.13;;;14.50;58.60;;;14.26;62.83;100253.03;5013492;28;20049;-79
2022/05/29 01:57:24;;;;;;;8.50;2.50;;;14.30;58.70;;;14.22;66.48;100243.53;5027239;28;20080;-78
2022/05/29 01:59:59;;;;;;;3.30;2.20;;;16.00;60.70;;;14.16;70.70;100246.41;5030821;28;20061;-79
2022/05/29 02:02:48;;;;;;;5.50;2.45;;;15.50;61.30;;;14.20;73.92;100244.50;5048737;28;20498;-78
2022/05/29 02:05:23;;;;;;;6.65;2.25;;;14.20;61.50;;;13.99;85.25;100241.81;5032638;28;20103;-78
2022/05/29 02:08:06;;;;;;;4.35;1.80;;;14.10;63.70;;;14.07;81.59;100236.22;5032483;28;20610;-79
2022/05/29 02:10:46;;;;;;;5.15;2.33;;;14.00;63.70;;;14.03;83.31;100243.41;5031467;28;20045;-77
2022/05/29 02:13:27;;;;;;;;;;;14.10;64.90;;;13.96;83.64;100240.13;5028583;28;20057;-78
2022/05/29 02:16:23;;;;;;;6.40;3.08;;;14.00;65.80;;;13.89;84.04;100243.94;5013353;28;19960;-77
2022/05/29 02:19:15;;;;;;;6.43;2.38;;;14.00;67.00;;;13.97;83.19;100241.84;5010977;28;20058;-78
2022/05/29 02:22:05;;;;;;;7.68;2.25;;;14.70;68.20;;;14.04;79.85;100245.13;5011811;28;20038;-78
2022/05/29 02:24:57;;;;;;;4.95;2.58;;;14.00;67.70;;;13.89;78.82;100244.81;5011297;28;20379;-79
2022/05/29 02:27:35;;;;;;;5.90;2.10;;;13.90;67.30;;;13.96;78.14;100241.91;5029032;28;20049;-77
2022/05/29 02:30:05;;;;;;;8.00;2.50;;;14.50;68.20;;;13.89;77.58;100242.16;5031072;28;20049;-79
2022/05/29 02:33:05;;;;;;;4.90;1.98;;;13.90;67.80;;;13.94;75.98;100238.47;5048379;28;20127;-78
2022/05/29 02:36:19;;;;;;;6.72;2.85;;;13.90;67.90;;;13.85;78.18;100240.56;5031253;28;20037;-78
2022/05/29 02:39:26;;;;;;;5.75;2.22;;;13.90;68.80;;;13.80;75.51;100239.88;5032492;28;20064;-79
2022/05/29 02:42:07;;;;;;;12.48;3.53;;;13.90;68.60;;;13.80;77.94;100241.69;5029979;28;20061;-78
2022/05/29 02:44:42;;;;;;;5.97;2.20;;;13.80;69.00;;;13.83;79.94;100245.06;5032365;28;20064;-77
2022/05/29 02:47:29;;;;;;;7.32;2.50;;;13.80;70.20;;;13.77;88.01;100247.94;5031393;28;20054;-78
2022/05/29 02:50:46;;;;;;;4.90;2.25;;;13.80;72.40;;;13.72;96.42;100241.97;5031553;28;20064;-77
2022/05/29 02:53:15;;;;;;;7.05;2.58;;;13.70;75.50;;;13.50;100.00;100241.94;5004910;28;20087;-76
2022/05/29 02:55:44;;;;;;;7.32;2.70;;;13.70;81.80;;;13.44;100.00;100251.84;5030002;28;20072;-77
2022/05/29 02:58:21;;;;;;;9.60;2.75;;;13.60;88.30;;;13.29;100.00;100255.88;5029583;28;20041;-78
2022/05/29 03:01:27;;;;;;;5.68;2.47;;;13.70;92.00;;;13.25;100.00;100251.63;5029260;28;20058;-78
2022/05/29 03:04:12;;;;;;;10.18;2.88;;;13.50;93.60;;;13.24;100.00;100247.25;5023956;28;20513;-78
2022/05/29 03:07:00;;;;;;;9.73;2.60;;;13.30;94.20;;;13.03;100.00;100252.44;5014695;28;20060;-78
2022/05/29 03:09:56;;;;;;;6.18;2.08;;;12.30;94.50;;;13.11;100.00;100246.88;5030661;28;20442;-78
2022/05/29 03:12:38;;;;;;;6.35;2.58;;;13.20;95.10;;;13.04;100.00;100243.59;5031124;28;20045;-79
2022/05/29 03:15:18;;;;;;;7.70;2.97;;;13.10;96.30;;;12.97;100.00;100255.28;5030922;28;20057;-78
2022/05/29 03:18:40;;;;;;;8.15;2.50;;;13.90;96.80;;;12.88;100.00;100252.97;5032269;28;20046;-78
2022/05/29 03:21:26;;;;;;;7.80;2.85;;;13.00;96.70;;;12.78;100.00;100252.41;5029661;28;20037;-77
2022/05/29 03:24:35;;;;;;;7.38;3.40;;;13.00;97.20;;;12.95;100.00;100248.31;5029169;28;20045;-78
2022/05/29 03:27:29;;;;;;;5.20;3.03;;;13.00;97.60;;;12.85;100.00;100242.50;5029268;28;20045;-77
2022/05/29 03:30:20;;;;;;;7.13;2.55;;;12.90;97.80;;;12.78;100.00;100239.22;5029391;28;20049;-77
2022/05/29 03:32:50;;;;;;;8.38;2.75;;;12.90;98.10;;;12.70;100.00;100236.00;5029053;28;20162;-79
2022/05/29 03:35:44;;;;;;;11.85;4.05;;;12.90;97.90;;;12.82;100.00;100221.50;5044984;28;20056;-78
2022/05/29 03:38:11;;;;;;;9.95;2.97;;;12.80;98.00;;;12.76;100.00;100212.00;5028361;28;20502;-78
2022/05/29 03:40:39;;;;;;;6.00;2.55;;;12.90;97.70;;;12.73;100.00;100218.28;5045294;28;20441;-78
2022/05/29 03:43:09;;;;;;;6.65;2.38;;;12.80;97.70;;;12.65;100.00;100216.81;5046067;28;20525;-77
2022/05/29 03:45:53;;;;;;;5.47;2.78;;;12.80;97.60;;;12.62;100.00;100207.22;5029291;28;20378;-78
2022/05/29 03:48:23;;;;;;;7.65;2.58;;;12.70;97.50;;;12.61;100.00;100202.88;5029667;28;20145;-78
2022/05/29 03:50:54;;;;;;;6.70;3.05;;;13.20;97.80;;;12.59;100.00;100215.25;5030076;28;20132;-77
2022/05/29 03:53:21;;;;;;;7.65;2.80;;;13.10;98.40;;;12.66;100.00;100221.19;5032293;28;20061;-77
2022/05/29 03:55:48;;;;;;;6.82;2.63;;;12.70;98.40;;;12.73;100.00;100228.84;5030568;28;20616;-78
2022/05/29 03:58:14;;;;;;;6.63;2.45;;;12.70;98.40;;;12.79;100.00;100226.88;5029272;28;20128;-78
2022/05/29 04:00:41;;;;;;;11.85;3.63;;;12.70;98.30;;;12.81;100.00;100231.22;5027436;28;20461;-78
2022/05/29 04:03:08;;;;;;;7.30;2.67;;;12.80;98.10;;;12.68;100.00;100228.13;5028541;28;20049;-78
2022/05/29 04:05:54;;;;;;;5.82;2.65;;;13.50;98.60;;;12.68;100.00;100224.63;5028262;28;20030;-77
2022/05/29 04:14:11;;;;;;;6.03;2.75;;;13.10;97.60;;;12.68;100.00;100229.91;5025656;28;20042;-76
2022/05/29 04:16:38;;;;;;;8.30;2.50;;;12.70;98.00;;;12.51;100.00;100226.09;5025914;28;20484;-75
2022/05/29 04:19:06;;;;;;;6.78;3.00;;;12.70;98.10;;;12.51;100.00;100228.72;5025023;28;20064;-75
2022/05/29 04:21:33;;;;;;;4.28;2.83;;;12.60;97.90;;;12.53;100.00;100232.16;5026246;28;20084;-76
2022/05/29 04:23:59;;;;;;;5.25;2.63;;;12.60;98.20;;;12.54;100.00;100230.38;5025982;28;20060;-76
2022/05/29 04:26:26;;;;;;;12.32;3.00;;;12.60;98.40;;;12.56;100.00;100223.25;5025933;28;20045;-75
2022/05/29 04:28:53;;;;;;;9.23;2.75;;;12.60;98.40;;;12.54;100.00;100233.00;5008371;28;20052;-76
2022/05/29 04:31:20;;;;;;;6.57;2.60;;;14.50;99.20;;;12.45;100.00;100227.16;5041860;28;20404;-76
2022/05/29 04:33:48;;;;;;;7.00;4.05;;;12.60;99.00;;;12.45;100.00;100227.16;5025252;28;20045;-75
2022/05/29 04:36:18;;;;;;;9.45;3.33;;;12.60;99.00;;;12.43;100.00;100215.78;5025521;28;20455;-76
2022/05/29 04:38:45;;;;;;;;;;;12.50;99.10;;;12.48;100.00;100227.03;5042228;28;20502;-76
2022/05/29 04:41:12;;;;;;;9.43;3.17;;;12.50;99.20;;;12.44;100.00;100225.44;5026252;28;19921;-76
2022/05/29 04:43:40;;;;;;;7.60;3.03;;;12.80;99.60;;;12.51;100.00;100226.09;5041557;28;20056;-76
2022/05/29 04:46:07;;;;;;;9.95;3.17;;;12.50;99.50;;;12.59;100.00;100228.47;5041530;28;20045;-76
2022/05/29 04:48:34;;;;;;;6.45;2.67;;;13.70;99.90;;;12.60;100.00;100224.91;5027211;28;20402;-76
2022/05/29 04:51:05;;;;;;;6.80;2.60;;;12.60;99.70;;;12.69;100.00;100234.28;5024253;28;20053;-75
2022/05/29 04:53:33;;;;;;;7.68;2.63;;;12.70;99.70;;;12.77;100.00;100229.56;5025563;28;20057;-76
2022/05/29 04:56:00;;;;;;;16.92;3.03;;;12.70;99.50;;;12.71;100.00;100214.81;5041851;28;20609;-76
2022/05/29 04:58:28;;;;;;;8.48;3.40;;;12.70;99.60;;;12.77;100.00;100221.66;5042027;28;20045;-76
2022/05/29 05:01:02;;;;;;;9.13;2.88;;;12.80;99.40;;;12.90;100.00;100219.44;5044211;28;20038;-76
2022/05/29 05:03:30;;;;;;;9.82;2.70;;;12.80;98.80;;;12.90;100.00;100215.00;5041289;28;20095;-75
2022/05/29 05:05:58;;;;;;;7.30;2.70;;;12.90;98.80;;;13.00;100.00;100214.69;5040411;28;20038;-76
2022/05/29 05:08:26;;;;;;;8.57;3.42;;;12.90;98.50;;;12.97;100.00;100220.09;5005798;28;20060;-77
2022/05/29 05:10:53;;;;;;;4.10;2.25;;;13.00;98.80;;;13.04;100.00;100219.81;4988567;28;20054;-77
2022/05/29 05:13:21;;;;;;;13.43;4.47;;;13.70;99.00;;;13.02;100.00;100218.97;5005884;28;20061;-78
2022/05/29 05:15:49;;;;;;;5.60;2.63;;;13.30;99.00;;;13.03;100.00;100218.09;5004830;28;20045;-76
2022/05/29 05:18:16;;;;;;;6.55;2.42;;;13.10;98.30;;;13.11;100.00;100214.28;5004840;28;20046;-77
2022/05/29 05:20:43;;;;;;;7.70;2.80;;;13.10;98.50;;;13.02;100.00;100212.84;5004380;28;20156;-77
2022/05/29 05:23:10;;;;;;;7.65;2.90;;;13.40;98.30;;;13.08;100.00;100212.63;5005652;28;20038;-78
2022/05/29 05:25:38;;;;;;;6.75;2.50;;;13.10;98.30;;;13.23;100.00;100213.84;5008630;28;20046;-78
2022/05/29 05:28:05;;;;;;;11.52;2.88;;;13.20;98.30;;;13.20;100.00;100216.59;5024918;28;20053;-78
2022/05/29 05:30:32;;;;;;;7.00;2.38;;;13.20;98.30;;;13.13;100.00;100212.44;5024274;28;20092;-78
2022/05/29 05:33:00;;;;;;;6.05;2.38;;;13.20;97.30;;;13.10;100.00;100217.84;5044683;28;20038;-77
2022/05/29 05:35:27;;;;;;;8.45;2.63;;;14.00;97.20;;;13.01;100.00;100211.13;5021230;28;20064;-76
2022/05/29 05:37:54;;;;;;;5.07;2.72;;;14.80;97.40;;;13.01;100.00;100217.25;5040597;28;20049;-77
2022/05/29 05:40:21;;;;;;;7.93;2.50;;;13.10;97.00;;;12.93;100.00;100216.69;5025252;28;20073;-76
2022/05/29 05:42:48;;;;;;;8.52;2.47;;;13.10;96.80;;;12.92;100.00;100217.63;5024877;28;20105;-78
2022/05/29 05:45:15;;;;;;;9.43;2.92;;;13.10;96.70;;;12.95;100.00;100229.81;5030486;28;20050;-78
2022/05/29 05:47:42;;;;;;;7.18;3.33;;;15.50;97.50;;;12.92;100.00;100225.53;5014170;28;20042;-78
2022/05/29 05:50:11;;;;;;;8.43;2.55;;;13.00;96.90;;;12.94;100.00;100218.41;5029422;28;20049;-79
2022/05/29 05:52:39;;;;;;;11.20;3.65;;;13.00;96.70;;;12.96;100.00;100227.13;5029779;28;20045;-78
2022/05/29 05:55:10;;;;;;;9.05;2.88;;;13.70;96.80;;;12.91;100.00;100226.47;5012081;28;20494;-78
2022/05/29 05:57:41;;;;;;;6.85;3.40;;;13.00;96.40;;;12.92;100.00;100233.47;4985920;28;20080;-79
2022/05/29 06:00:13;;;;;;;6.18;2.58;;;13.00;96.70;;;12.96;100.00;100236.84;4996171;28;20050;-78
2022/05/29 06:02:42;;;;;;;6.82;2.38;;;13.00;96.80;;;12.98;100.00;100237.66;5031261;28;20121;-78
2022/05/29 06:05:15;;;;;;;15.43;3.05;;;13.90;97.00;;;13.07;100.00;100236.47;5013525;28;20064;-78
2022/05/29 06:07:42;;;;;;;7.05;2.30;;;14.00;97.00;;;12.98;100.00;100233.22;5014087;28;20153;-78
2022/05/29 06:10:10;;;;;;;7.55;2.58;;;14.20;97.00;;;13.02;100.00;100240.09;5023378;28;20030;-78
2022/05/29 06:12:39;;;;;;;8.45;2.63;;;13.00;96.70;;;12.94;100.00;100236.03;5031714;28;20144;-80
2022/05/29 06:15:08;;;;;;;9.48;2.38;;;13.00;96.60;;;12.93;100.00;100239.59;5030244;28;20045;-79
2022/05/29 06:17:35;;;;;;;6.20;2.33;;;13.00;96.30;;;12.93;100.00;100243.09;4998570;28;20111;-78
2022/05/29 06:20:03;;;;;;;11.38;3.20;;;13.00;96.70;;;12.90;100.00;100249.34;5014136;28;20053;-78
2022/05/29 06:22:34;;;;;;;6.93;2.67;;;13.00;96.50;;;12.93;100.00;100251.03;5027787;28;20041;-77
2022/05/29 06:25:01;;;;;;;8.80;2.72;;;13.00;96.70;;;12.96;100.00;100256.19;5026069;28;20055;-79
2022/05/29 06:27:28;;;;;;;8.00;2.33;;;13.00;96.90;;;12.97;100.00;100251.78;5026852;28;20048;-79
2022/05/29 06:29:55;;;;;;;6.63;2.10;;;13.10;96.70;;;12.88;100.00;100263.53;5028965;28;20041;-79
2022/05/29 06:32:22;;;;;;;5.00;2.30;;;13.10;96.60;;;12.93;100.00;100264.22;5045483;28;20045;-79
2022/05/29 06:34:49;;;;;;;5.25;2.20;;;13.60;96.80;;;13.04;100.00;100259.44;5045561;28;20088;-79
2022/05/29 06:37:16;;;;;;;5.60;2.55;;;13.80;96.80;;;13.03;100.00;100270.91;5028872;28;20128;-79
2022/05/29 06:39:43;;;;;;;7.38;2.45;;;13.10;96.70;;;13.01;100.00;100274.50;5045207;28;20502;-80
2022/05/29 06:42:11;;;;;;;7.43;1.95;;;13.10;96.30;;;13.06;100.00;100272.56;5030141;28;20422;-81
2022/05/29 06:44:38;;;;;;;8.32;2.65;;;13.10;96.20;;;12.98;100.00;100272.00;5047387;28;20041;-80
2022/05/29 06:47:07;;;;;;;6.72;1.90;;;13.20;96.30;;;12.95;100.00;100274.72;5030019;28;20217;-80
2022/05/29 06:49:35;;;;;;;4.40;1.98;;;13.10;96.00;;;13.09;100.00;100261.88;5049258;28;20172;-78
2022/05/29 06:52:10;;;;;;;7.35;2.25;;;13.40;96.10;;;13.02;100.00;100266.53;5052884;28;20041;-80
2022/05/29 06:54:38;;;;;;;6.63;2.33;;;13.90;96.20;;;13.11;100.00;100267.13;5031751;28;20045;-80
2022/05/29 06:57:07;;;;;;;4.00;1.85;;;13.20;95.90;;;13.25;100.00;100266.59;5017839;28;20068;-79
2022/05/29 07:08:01;;;;;;;3.22;1.48;;;13.60;95.50;;;13.46;100.00;100272.91;5011856;28;20057;-79
2022/05/29 07:10:31;;;;;;;3.50;1.65;;;13.60;95.60;;;13.56;100.00;100276.94;5032955;28;20037;-80
2022/05/29 07:13:00;;;;;;;4.57;1.65;;;13.60;95.50;;;13.64;100.00;100276.66;5032557;28;20561;-80
2022/05/29 07:15:28;;;;;;;2.72;1.58;;;13.60;95.50;;;13.62;100.00;100281.13;5015118;28;20037;-80
2022/05/29 07:18:00;;;;;;;3.08;1.55;;;13.70;95.60;;;13.56;100.00;100284.88;5031579;28;20405;-80
2022/05/29 07:20:28;;;;;;;2.90;1.48;;;13.70;95.50;;;13.51;100.00;100280.66;5015002;28;20128;-80
2022/05/29 07:22:57;;;;;;;3.17;1.40;;;13.60;95.70;;;13.55;100.00;100272.56;5029902;28;20069;-82
2022/05/29 07:25:24;;;;;;;5.35;1.98;;;13.70;96.00;;;13.65;100.00;100280.13;5012746;28;20125;-80
2022/05/29 07:27:51;;;;;;;2.28;1.33;;;16.40;96.80;;;13.49;100.00;100279.88;5044744;28;20534;-79
2022/05/29 07:30:18;;;;;;;3.88;1.55;;;13.70;96.00;;;13.51;100.00;100283.31;5026224;28;20047;-81
2022/05/29 07:32:47;;;;;;;4.03;2.10;;;13.70;96.30;;;13.58;100.00;100296.25;5030564;28;20478;-79
2022/05/29 07:35:16;;;;;;;2.92;1.52;;;13.70;96.40;;;13.55;100.00;100284.91;5028547;28;20708;-80
2022/05/29 07:37:44;;;;;;;3.13;1.48;;;13.70;96.40;;;13.52;100.00;100292.97;5027625;28;20049;-79
2022/05/29 07:40:11;;;;;;;3.78;1.83;;;13.60;96.60;;;13.55;100.00;100296.38;5026406;28;20053;-80
2022/05/29 07:45:24;;;;;;;2.35;1.50;;;14.30;97.40;;;13.44;100.00;100294.13;5041271;28;20037;-76
2022/05/29 07:47:51;;;;;;;4.65;1.90;;;13.90;97.10;;;13.31;100.00;100296.31;5010551;28;20115;-76
2022/05/29 07:50:21;;;;;;;2.67;1.52;;;13.60;97.10;;;13.21;100.00;100297.59;5026391;28;20046;-76
2022/05/29 07:52:51;;;;;;;5.77;1.73;;;13.40;97.10;;;13.28;100.00;100291.13;5027832;28;20052;-77
2022/05/29 07:55:19;;;;;;;4.20;1.80;;;13.40;97.40;;;13.24;100.00;100300.09;5026756;28;20041;-76
2022/05/29 07:57:46;;;;;;;4.03;1.95;;;13.40;97.20;;;13.03;100.00;100299.97;5013793;28;20045;-75
2022/05/29 08:00:19;;;;;;;2.70;2.15;;;13.30;97.20;;;12.95;100.00;100299.34;5007926;28;20041;-75
2022/05/29 08:02:47;;;;;;;3.80;1.88;;;13.30;97.30;;;12.95;100.00;100294.06;5009967;28;20050;-76
2022/05/29 08:05:18;;;;;;;3.38;1.80;;;13.70;97.60;;;13.02;100.00;100302.66;5007380;28;20069;-75
2022/05/29 08:07:46;;;;;;;6.05;1.98;;;13.20;97.60;;;13.27;100.00;100312.34;5006994;28;20128;-76
2022/05/29 08:10:18;;;;;;;5.50;2.13;;;13.20;97.70;;;13.25;100.00;100314.16;5006416;28;20077;-78
2022/05/29 08:12:47;;;;;;;7.57;2.45;;;13.30;97.90;;;13.23;100.00;100311.59;4990326;28;20713;-77
2022/05/29 08:15:15;;;;;;;3.67;1.93;;;13.40;97.80;;;13.32;100.00;100295.38;5009161;28;20068;-77
2022/05/29 08:17:46;;;;;;;3.55;2.08;;;13.30;97.80;;;13.39;100.00;100292.53;5006802;28;20769;-77
2022/05/29 08:20:17;;;;;;;4.88;1.88;;;13.40;97.60;;;13.45;100.00;100298.50;5011654;28;20057;-78
2022/05/29 08:22:44;;;;;;;7.25;2.20;;;13.50;97.60;;;13.56;100.00;100295.44;4996881;28;20550;-77
2022/05/29 08:30:53;;;;;;;6.53;2.20;;;13.70;97.30;;;13.72;100.00;100302.78;5026820;28;20128;-77
2022/05/29 08:33:35;;;;;;;7.43;2.47;;;13.70;96.80;;;13.98;100.00;100293.00;5011033;28;20410;-78
2022/05/29 08:36:19;;;;;;;4.72;2.22;;;13.80;96.80;;;13.93;100.00;100294.94;5010601;28;20498;-77
2022/05/29 08:38:52;;;;;;;7.15;2.72;;;13.90;96.60;;;14.07;100.00;100289.13;5026594;28;20565;-78
2022/05/29 08:41:40;;;;;;;5.53;3.45;;;14.00;96.50;;;14.32;100.00;100288.97;5010224;28;20065;-78
2022/05/29 08:44:17;;;;;;;7.93;2.85;;;14.10;96.50;;;14.37;100.00;100297.59;5025401;28;20049;-78
2022/05/29 08:47:00;;;;;;;8.07;3.30;;;14.20;96.20;;;14.44;100.00;100303.50;5009627;28;20064;-76
2022/05/29 08:49:37;;;;;;;8.38;3.28;;;14.30;96.00;;;14.52;100.00;100298.75;5024885;28;20049;-76
2022/05/29 08:52:47;;;;;;;7.47;2.15;;;14.40;96.00;;;14.63;100.00;100298.31;5025685;28;20041;-76
2022/05/29 08:55:47;;;;;;;5.95;2.70;;;14.50;95.50;;;14.81;100.00;100293.19;5006990;28;20081;-76
2022/05/29 08:58:44;;;;;;;;;;;14.60;95.20;;;14.85;100.00;100285.03;5007313;28;20045;-76
2022/05/29 09:01:41;;;;;;;27.63;4.85;;;14.70;94.70;;;14.86;100.00;100286.75;4988457;28;20313;-79
2022/05/29 09:04:26;;;;;;;4.72;2.08;;;14.90;94.30;;;14.90;100.00;100282.16;5016674;28;20041;-78
2022/05/29 09:06:58;;;;;;;6.97;2.53;;;15.00;93.60;;;15.08;100.00;100280.50;5022470;28;20041;-76
2022/05/29 09:09:55;;;;;;;3.22;1.73;;;15.10;93.80;;;15.21;100.00;100274.66;5016028;28;20037;-76
2022/05/29 09:13:21;;;;;;;10.90;2.67;;;15.20;93.70;;;15.45;92.98;100268.25;5011167;28;20049;-77
2022/05/29 09:16:34;;;;;;;4.15;1.65;;;15.20;92.70;;;15.40;85.41;100262.28;5025766;28;20061;-76
2022/05/29 09:19:10;;;;;;;4.03;1.92;;;15.40;91.70;;;15.65;84.21;100257.63;5026301;28;20649;-77
2022/05/29 09:21:58;;;;;;;3.60;1.90;;;15.50;91.60;;;15.58;78.78;100262.38;5026686;28;20053;-77
2022/05/29 09:24:50;;;;;;;6.20;2.20;;;15.60;90.90;;;15.48;73.47;100259.28;5027421;28;20220;-78
2022/05/29 09:27:17;;;;;;;4.47;1.92;;;15.60;90.10;;;15.43;73.93;100256.84;5029160;28;20053;-78
2022/05/29 09:29:44;;;;;;;7.82;1.90;;;15.60;89.90;;;15.43;78.21;100245.38;5033847;28;20053;-79
2022/05/29 09:32:22;;;;;;;3.20;1.42;;;15.50;90.30;;;15.59;71.27;100248.16;5049481;28;20049;-83
2022/05/29 09:35:35;;;;;;;4.15;1.63;;;15.50;89.70;;;15.57;56.77;100244.72;5049778;28;20076;-83
2022/05/29 09:38:14;;;;;;;4.15;1.73;;;15.60;83.90;;;15.73;58.60;100243.06;5017372;28;20048;-81
2022/05/29 09:41:07;;;;;;;5.53;1.88;;;15.60;84.50;;;15.87;58.08;100244.22;5013007;28;20055;-81
2022/05/29 09:43:34;;;;;;;6.57;1.50;;;15.70;84.50;;;16.08;58.21;100260.03;5013942;28;20413;-83
2022/05/29 09:46:22;;;;;;;5.28;1.70;;;18.10;85.90;;;16.09;53.93;100246.72;5008521;28;20152;-81
2022/05/29 09:52:06;;;;;;;4.55;2.05;;;15.90;81.40;;;16.22;51.65;100239.00;5022825;28;20127;-81
2022/05/29 09:54:50;;;;;;;3.67;1.50;;;16.00;79.30;;;16.25;52.64;100230.91;5013482;28;20056;-80
2022/05/29 09:57:32;;;;;;;3.72;1.80;;;16.10;79.70;;;16.30;55.54;100228.88;5010817;28;20690;-79
2022/05/29 10:00:24;;;;;;;6.43;1.60;;;16.20;81.40;;;16.26;52.67;100226.44;5008066;28;20725;-82
2022/05/29 10:02:52;;;;;;;5.07;2.60;;;16.20;79.60;;;16.49;54.40;100229.75;4990905;28;20164;-80
2022/05/29 10:05:28;;;;;;;7.43;3.15;;;16.20;80.50;;;16.75;53.53;100220.41;5012464;28;20127;-81
2022/05/29 10:07:59;;;;;;;4.75;1.50;;;16.40;80.30;;;16.69;53.56;100224.25;5013260;28;20056;-80
2022/05/29 10:10:26;;;;;;;3.50;1.70;;;17.10;80.40;;;16.83;54.41;100222.69;5028094;28;20096;-81
2022/05/29 10:12:58;;;;;;;2.50;1.45;;;16.60;80.50;;;16.97;54.39;100220.16;5013540;28;20648;-80
2022/05/29 10:15:25;;;;;;;6.18;1.63;;;17.20;80.60;;;17.29;57.08;100222.03;5029306;28;20046;-81
2022/05/29 10:18:28;;;;;;;6.60;1.88;;;16.80;82.00;;;17.61;64.62;100210.56;5028944;28;20064;-81
2022/05/29 10:21:32;;;;;;;3.30;1.42;;;17.10;84.90;;;17.93;60.36;100205.22;5019574;28;20049;-82
2022/05/29 10:24:32;;;;;;;4.00;1.77;;;17.70;83.70;;;17.98;55.59;100198.69;5033371;28;20045;-82
2022/05/29 10:27:02;;;;;;;3.60;1.77;;;17.60;81.40;;;18.13;54.73;100194.28;5034751;28;20068;-79
2022/05/29 10:29:36;;;;;;;3.63;1.67;;;18.00;80.60;;;18.27;55.52;100189.97;5033522;28;20077;-80
2022/05/29 10:32:19;;;;;;;3.80;1.92;;;18.10;80.90;;;18.38;54.06;100190.19;5031852;28;20051;-80
2022/05/29 10:34:46;;;;;;;3.83;1.50;;;18.10;80.30;;;18.39;54.33;100185.69;5028338;28;20503;-80
2022/05/29 10:37:27;;;;;;;4.70;1.75;;;18.10;79.80;;;18.30;51.63;100192.44;5031462;28;20042;-81
2022/05/29 10:40:29;;;;;;;6.55;2.17;;;18.20;77.70;;;18.05;53.18;100193.91;5022242;28;20045;-81
2022/05/29 10:43:00;;;;;;;4.30;1.80;;;18.20;77.60;;;17.77;57.82;100191.91;5017142;28;20059;-81
2022/05/29 10:45:46;;;;;;;5.78;1.55;;;18.00;79.60;;;17.72;59.29;100197.53;5016039;28;20046;-81
2022/05/29 10:48:36;;;;;;;4.90;2.15;;;17.80;80.20;;;17.54;55.93;100186.94;5036089;28;20072;-81
2022/05/29 10:51:23;;;;;;;7.18;2.17;;;17.70;78.50;;;17.61;56.41;100197.25;5004809;28;20076;-82
2022/05/29 10:54:10;;;;;;;8.43;2.50;;;17.60;78.70;;;17.50;59.23;100190.72;5018142;28;20053;-82
2022/05/29 10:57:25;;;;;;;5.57;2.05;;;17.50;80.20;;;17.56;57.78;100201.06;5013474;28;20063;-80
2022/05/29 11:00:29;;;;;;;7.25;2.15;;;17.50;79.60;;;17.63;58.45;100198.88;5032522;28;20093;-82
2022/05/29 11:03:23;;;;;;;5.60;2.20;;;17.50;79.80;;;17.79;56.10;100201.53;5031532;28;20083;-81
2022/05/29 11:06:19;;;;;;;6.47;2.40;;;17.60;79.50;;;17.86;55.28;100194.06;5028301;28;20046;-80
2022/05/29 11:08:57;;;;;;;10.10;2.88;;;17.70;78.70;;;17.55;53.97;100187.81;5027869;28;20089;-81
2022/05/29 11:11:45;;;;;;;11.43;3.28;;;17.70;77.20;;;17.81;54.41;100190.81;5030258;28;20103;-80
2022/05/29 11:14:44;;;;;;;6.13;2.40;;;17.70;78.00;;;17.86;52.84;100189.56;5037752;28;20040;-79
2022/05/29 11:17:46;;;;;;;7.25;2.53;;;17.70;77.20;;;17.84;50.36;100180.84;5034431;28;20096;-79
2022/05/29 11:20:45;;;;;;;7.20;2.10;;;17.80;75.10;;;18.08;51.04;100172.41;5043930;28;20060;-80